createdAt,value
2019-03-30T00:02:04.590Z,74.41
2019-03-30T00:04:34.985Z,73.91
2019-03-30T00:07:05.498Z,74.02
2019-03-30T00:09:37.890Z,73.57
2019-03-30T00:12:07.473Z,73.49
2019-03-30T00:14:36.861Z,74.24
2019-03-30T00:17:07.430Z,74.41
2019-03-30T00:19:36.836Z,74.35
2019-03-30T00:22:07.251Z,74.62
2019-03-30T00:24:36.678Z,75.14
2019-03-30T00:27:06.170Z,75.41
2019-03-30T00:29:35.040Z,75.61
2019-03-30T00:32:03.562Z,75.74
2019-03-30T00:34:32.330Z,75.71
2019-03-30T00:37:01.757Z,75.78
2019-03-30T00:39:32.049Z,75.72
2019-03-30T00:42:02.415Z,75.97
2019-03-30T00:44:31.808Z,76.52
2019-03-30T00:47:03.343Z,76.04
2019-03-30T00:49:32.801Z,76.08
2019-03-30T00:52:02.189Z,76.35
2019-03-30T00:54:32.464Z,76.37
2019-03-30T00:57:02.832Z,76.52
2019-03-30T00:59:33.197Z,76.25
2019-03-30T01:02:03.758Z,76.56
2019-03-30T01:04:34.280Z,76.31
2019-03-30T01:07:03.737Z,76.48
2019-03-30T01:09:36.127Z,76.19
2019-03-30T01:12:06.547Z,76.11
2019-03-30T01:14:36.946Z,76.23
2019-03-30T01:17:07.030Z,76.15
2019-03-30T01:19:46.116Z,75.79
2019-03-30T01:22:15.583Z,75.94
2019-03-30T01:24:46.083Z,76.10
2019-03-30T01:27:15.676Z,76.40
2019-03-30T01:29:45.059Z,76.42
2019-03-30T01:32:14.478Z,76.62
2019-03-30T01:34:43.882Z,76.99
2019-03-30T01:37:14.458Z,76.85
2019-03-30T01:39:43.858Z,76.91
2019-03-30T01:42:14.444Z,77.38
2019-03-30T01:44:46.415Z,77.30
2019-03-30T01:47:16.879Z,77.64
2019-03-30T01:49:49.300Z,77.60
2019-03-30T01:52:18.706Z,78.06
2019-03-30T01:54:49.066Z,78.11
2019-03-30T01:57:18.437Z,78.08
2019-03-30T01:59:47.837Z,77.83
2019-03-30T02:02:18.403Z,77.73
2019-03-30T02:04:47.809Z,77.88
2019-03-30T02:07:19.529Z,78.49
2019-03-30T02:09:49.034Z,78.66
2019-03-30T02:12:19.412Z,78.99
2019-03-30T02:14:48.804Z,78.94
2019-03-30T02:17:20.160Z,78.96
2019-03-30T02:19:50.515Z,78.89
2019-03-30T02:22:19.918Z,79.90
2019-03-30T02:24:49.238Z,79.23
2019-03-30T02:27:18.650Z,78.96
2019-03-30T02:29:47.121Z,78.98
2019-03-30T02:32:16.481Z,78.81
2019-03-30T02:34:46.887Z,79.31
2019-03-30T02:37:17.333Z,79.02
2019-03-30T02:39:46.819Z,79.20
2019-03-30T02:42:17.497Z,79.53
2019-03-30T02:44:48.206Z,79.43
2019-03-30T02:47:17.595Z,80.12
2019-03-30T02:49:48.070Z,79.77
2019-03-30T02:52:17.482Z,80.11
2019-03-30T02:54:47.962Z,79.91
2019-03-30T02:57:17.425Z,79.68
2019-03-30T02:59:46.825Z,79.57
2019-03-30T03:02:17.155Z,79.85
2019-03-30T03:04:46.588Z,79.80
2019-03-30T03:07:16.947Z,80.58
2019-03-30T03:09:47.341Z,80.23
2019-03-30T03:12:17.748Z,79.48
2019-03-30T03:14:48.046Z,79.81
2019-03-30T03:17:19.123Z,79.06
2019-03-30T03:19:49.455Z,79.54
2019-03-30T03:22:19.797Z,79.43
2019-03-30T03:24:49.273Z,79.04
2019-03-30T03:27:18.660Z,79.66
2019-03-30T03:29:49.124Z,79.83
2019-03-30T03:32:17.604Z,80.11
2019-03-30T03:34:47.951Z,79.25
2019-03-30T03:37:17.433Z,79.10
2019-03-30T03:39:47.843Z,78.98
2019-03-30T03:42:16.636Z,78.65
2019-03-30T03:44:47.066Z,79.53
2019-03-30T03:47:16.429Z,80.13
2019-03-30T03:49:46.870Z,79.19
2019-03-30T03:52:17.354Z,79.59
2019-03-30T03:54:49.039Z,79.49
2019-03-30T03:57:21.288Z,79.43
2019-03-30T03:59:52.803Z,79.44
2019-03-30T04:02:25.248Z,79.11
2019-03-30T04:04:57.736Z,79.26
2019-03-30T04:07:31.700Z,79.46
2019-03-30T04:12:52.614Z,79.12
2019-03-30T04:15:29.128Z,79.68
2019-03-30T04:17:57.954Z,79.45
2019-03-30T04:20:27.617Z,79.67
2019-03-30T04:22:57.929Z,80.36
2019-03-30T04:25:28.800Z,80.40
2019-03-30T04:27:58.338Z,80.20
2019-03-30T04:30:28.686Z,80.13
2019-03-30T04:32:59.138Z,80.71
2019-03-30T04:35:28.544Z,81.18
2019-03-30T04:37:59.006Z,80.49
2019-03-30T04:40:28.402Z,80.62
2019-03-30T04:42:58.895Z,80.16
2019-03-30T04:45:29.292Z,80.40
2019-03-30T04:48:01.673Z,80.13
2019-03-30T04:50:31.388Z,80.30
2019-03-30T04:53:00.855Z,80.85
2019-03-30T04:55:32.717Z,81.22
2019-03-30T04:58:04.561Z,80.16
2019-03-30T05:00:35.163Z,79.86
2019-03-30T05:03:05.726Z,79.86
2019-03-30T05:05:35.136Z,78.71
2019-03-30T05:08:06.911Z,78.51
2019-03-30T05:10:36.284Z,77.90
2019-03-30T05:13:06.880Z,75.87
2019-03-30T05:15:36.361Z,74.01
2019-03-30T05:18:08.235Z,72.48
2019-03-30T05:20:39.763Z,71.96
2019-03-30T05:23:12.259Z,71.33
2019-03-30T05:25:41.668Z,71.01
2019-03-30T05:28:12.129Z,69.58
2019-03-30T05:30:41.536Z,62.27
2019-03-30T05:33:12.106Z,57.90
2019-03-30T05:35:42.518Z,59.93
2019-03-30T05:38:12.927Z,55.61
2019-03-30T05:40:42.289Z,54.54
2019-03-30T05:43:11.680Z,48.02
2019-03-30T05:45:41.009Z,45.44
2019-03-30T05:48:10.480Z,42.30
2019-03-30T05:50:40.870Z,43.24
2019-03-30T05:53:10.349Z,41.93
2019-03-30T05:55:40.063Z,40.83
2019-03-30T05:58:12.351Z,39.02
2019-03-30T06:00:42.910Z,37.53
2019-03-30T06:03:15.159Z,39.31
2019-03-30T06:05:43.629Z,39.41
2019-03-30T06:08:12.996Z,37.64
2019-03-30T06:10:42.383Z,36.64
2019-03-30T06:13:10.908Z,33.50
2019-03-30T06:15:41.457Z,30.73
2019-03-30T06:18:12.003Z,30.38
2019-03-30T06:20:41.355Z,29.06
2019-03-30T06:23:10.756Z,30.57
2019-03-30T06:25:39.239Z,28.45
2019-03-30T06:28:09.587Z,27.57
2019-03-30T06:30:39.229Z,27.80
2019-03-30T06:33:09.722Z,27.72
2019-03-30T06:35:40.027Z,27.40
2019-03-30T06:38:11.885Z,28.22
2019-03-30T06:40:41.416Z,27.90
2019-03-30T06:43:11.873Z,26.68
2019-03-30T06:45:43.726Z,27.24
2019-03-30T06:48:14.268Z,25.45
2019-03-30T06:50:44.859Z,26.77
2019-03-30T06:53:16.945Z,26.81
2019-03-30T06:55:47.343Z,28.07
2019-03-30T06:58:18.800Z,27.90
2019-03-30T07:00:48.346Z,30.07
2019-03-30T07:03:20.855Z,29.72
2019-03-30T07:05:51.241Z,28.80
2019-03-30T07:08:20.669Z,27.35
2019-03-30T07:10:50.249Z,26.21
2019-03-30T07:13:21.746Z,26.70
2019-03-30T07:15:52.528Z,27.56
2019-03-30T07:18:22.983Z,27.20
2019-03-30T07:20:52.488Z,27.18
2019-03-30T07:23:24.407Z,27.26
2019-03-30T07:25:54.732Z,30.03
2019-03-30T07:28:25.098Z,28.02
2019-03-30T07:30:54.538Z,27.53
2019-03-30T07:33:23.405Z,29.40
2019-03-30T07:35:53.834Z,29.92
2019-03-30T07:38:24.251Z,31.92
2019-03-30T07:40:55.825Z,31.88
2019-03-30T07:43:25.209Z,31.18
2019-03-30T07:45:54.669Z,32.51
2019-03-30T07:48:23.986Z,32.50
2019-03-30T07:50:54.417Z,32.95
2019-03-30T07:53:26.630Z,32.75
2019-03-30T07:56:08.332Z,31.97
2019-03-30T07:58:30.671Z,30.55
2019-03-30T08:01:01.130Z,30.94
2019-03-30T08:03:33.169Z,31.22
2019-03-30T08:06:04.591Z,32.68
2019-03-30T08:08:35.073Z,31.60
2019-03-30T08:11:06.367Z,30.72
2019-03-30T08:13:36.807Z,32.53
2019-03-30T08:16:06.215Z,32.34
2019-03-30T08:18:36.680Z,32.23
2019-03-30T08:21:07.093Z,30.91
2019-03-30T08:23:40.608Z,31.31
2019-03-30T08:26:07.705Z,30.62
2019-03-30T08:28:38.111Z,30.90
2019-03-30T08:31:07.509Z,30.73
2019-03-30T08:33:37.932Z,30.97
2019-03-30T08:36:08.313Z,32.81
2019-03-30T08:38:38.669Z,34.41
2019-03-30T08:41:09.615Z,34.47
2019-03-30T08:43:39.062Z,33.56
2019-03-30T08:46:10.696Z,34.69
2019-03-30T08:48:40.137Z,31.68
2019-03-30T08:51:10.447Z,34.96
2019-03-30T08:53:54.078Z,33.49
2019-03-30T08:56:13.932Z,33.71
2019-03-30T08:58:44.333Z,33.71
2019-03-30T09:01:14.720Z,34.36
2019-03-30T09:03:45.165Z,35.24
2019-03-30T09:06:14.553Z,33.09
2019-03-30T09:08:45.007Z,34.33
2019-03-30T09:11:16.401Z,34.58
2019-03-30T09:13:46.854Z,35.16
2019-03-30T09:16:16.266Z,34.07
2019-03-30T09:18:49.485Z,34.33
2019-03-30T09:21:19.026Z,36.30
2019-03-30T09:23:49.520Z,35.54
2019-03-30T09:26:19.954Z,34.72
2019-03-30T09:28:50.312Z,34.39
2019-03-30T09:31:19.706Z,35.36
2019-03-30T09:33:49.155Z,35.94
2019-03-30T09:36:18.563Z,37.13
2019-03-30T09:38:49.039Z,38.01
2019-03-30T09:41:21.158Z,37.79
2019-03-30T09:43:51.620Z,37.09
2019-03-30T09:46:21.018Z,38.43
2019-03-30T09:48:51.391Z,39.73
2019-03-30T09:51:21.720Z,38.16
2019-03-30T09:53:52.092Z,36.35
2019-03-30T09:56:23.168Z,36.89
2019-03-30T09:58:54.160Z,38.12
2019-03-30T10:01:26.163Z,38.52
2019-03-30T10:04:01.648Z,38.58
2019-03-30T10:06:34.534Z,37.89
2019-03-30T10:09:03.026Z,38.87
2019-03-30T10:11:33.424Z,40.07
2019-03-30T10:14:02.757Z,40.47
2019-03-30T10:16:32.160Z,41.60
2019-03-30T10:19:02.621Z,41.31
2019-03-30T10:21:32.977Z,40.19
2019-03-30T10:24:04.435Z,39.96
2019-03-30T10:26:33.843Z,43.08
2019-03-30T10:29:07.897Z,40.44
2019-03-30T10:31:38.304Z,40.17
2019-03-30T10:34:08.715Z,40.36
2019-03-30T10:36:40.792Z,39.51
2019-03-30T10:39:11.251Z,40.14
2019-03-30T10:41:42.734Z,40.20
2019-03-30T10:44:14.870Z,41.25
2019-03-30T10:46:45.449Z,41.05
2019-03-30T10:49:14.274Z,41.32
2019-03-30T10:51:43.752Z,40.18
2019-03-30T10:54:14.147Z,40.41
2019-03-30T10:56:44.446Z,40.57
2019-03-30T10:59:13.861Z,39.84
2019-03-30T11:01:43.315Z,39.03
2019-03-30T11:04:12.853Z,38.82
2019-03-30T11:06:43.569Z,38.67
2019-03-30T11:09:14.325Z,39.66
2019-03-30T11:11:46.678Z,39.10
2019-03-30T11:14:17.044Z,37.79
2019-03-30T11:16:47.414Z,39.10
2019-03-30T11:19:21.543Z,38.90
2019-03-30T11:21:53.935Z,38.09
2019-03-30T11:24:28.079Z,39.12
2019-03-30T11:27:00.592Z,39.07
2019-03-30T11:29:30.998Z,38.31
2019-03-30T11:32:01.539Z,38.17
2019-03-30T11:34:32.275Z,39.51
2019-03-30T11:37:04.722Z,38.31
2019-03-30T11:39:34.138Z,37.74
2019-03-30T11:42:04.697Z,38.06
2019-03-30T11:44:34.103Z,38.38
2019-03-30T11:47:03.525Z,38.22
2019-03-30T11:49:33.908Z,37.64
2019-03-30T11:52:06.425Z,37.24
2019-03-30T11:54:36.946Z,37.03
2019-03-30T11:57:08.466Z,38.17
2019-03-30T11:59:38.939Z,37.51
2019-03-30T12:02:10.833Z,37.09
2019-03-30T12:04:40.267Z,36.41
2019-03-30T12:07:10.841Z,37.15
2019-03-30T12:09:40.258Z,37.92
2019-03-30T12:12:10.726Z,37.47
2019-03-30T12:14:41.616Z,37.17
2019-03-30T12:17:10.375Z,37.93
2019-03-30T12:19:40.792Z,39.38
2019-03-30T12:22:14.749Z,37.63
2019-03-30T12:24:46.036Z,37.67
2019-03-30T12:27:16.590Z,37.33
2019-03-30T12:29:46.496Z,37.93
2019-03-30T12:32:15.004Z,37.27
2019-03-30T12:34:44.378Z,37.57
2019-03-30T12:37:12.863Z,37.21
2019-03-30T12:39:43.293Z,37.86
2019-03-30T12:42:13.804Z,38.18
2019-03-30T12:44:45.496Z,39.35
2019-03-30T12:47:15.881Z,38.71
2019-03-30T12:49:45.532Z,37.21
2019-03-30T12:52:15.918Z,36.78
2019-03-30T12:54:47.409Z,37.68
2019-03-30T12:57:17.775Z,38.15
2019-03-30T12:59:48.176Z,37.49
2019-03-30T13:02:20.599Z,38.08
2019-03-30T13:04:50.018Z,38.08
2019-03-30T13:07:20.383Z,38.47
2019-03-30T13:09:49.874Z,38.85
2019-03-30T13:12:21.967Z,38.80
2019-03-30T13:14:52.531Z,39.10
2019-03-30T13:17:22.927Z,38.81
2019-03-30T13:19:56.021Z,37.97
2019-03-30T13:22:26.354Z,37.76
2019-03-30T13:24:55.757Z,38.21
2019-03-30T13:27:25.741Z,38.14
2019-03-30T13:29:56.211Z,37.22
2019-03-30T13:32:24.947Z,37.44
2019-03-30T13:34:57.750Z,38.18
2019-03-30T13:37:29.783Z,37.42
2019-03-30T13:40:01.600Z,37.90
2019-03-30T13:42:30.992Z,37.55
2019-03-30T13:45:03.268Z,36.32
2019-03-30T13:47:32.498Z,36.35
2019-03-30T13:50:02.960Z,36.79
2019-03-30T13:52:33.438Z,38.08
2019-03-30T13:55:06.429Z,37.07
2019-03-30T13:57:37.843Z,38.08
2019-03-30T14:00:09.849Z,38.25
2019-03-30T14:02:43.763Z,37.78
2019-03-30T14:05:14.131Z,37.51
2019-03-30T14:07:44.623Z,37.41
2019-03-30T14:10:15.696Z,37.38
2019-03-30T14:12:45.058Z,37.23
2019-03-30T14:15:17.040Z,36.51
2019-03-30T14:17:48.746Z,37.44
2019-03-30T14:20:18.267Z,37.71
2019-03-30T14:22:48.723Z,38.14
2019-03-30T14:25:18.124Z,36.69
2019-03-30T14:27:46.600Z,36.28
2019-03-30T14:30:16.653Z,36.33
2019-03-30T14:32:45.896Z,36.36
2019-03-30T14:35:16.184Z,36.60
2019-03-30T14:37:48.276Z,36.23
2019-03-30T14:40:18.742Z,36.34
2019-03-30T14:42:49.146Z,35.80
2019-03-30T14:45:18.656Z,36.06
2019-03-30T14:47:48.657Z,36.11
2019-03-30T14:50:19.540Z,36.35
2019-03-30T14:52:49.935Z,36.47
2019-03-30T14:55:19.414Z,36.22
2019-03-30T14:57:48.804Z,36.76
2019-03-30T15:00:17.400Z,37.71
2019-03-30T15:02:48.468Z,35.84
2019-03-30T15:05:17.261Z,36.79
2019-03-30T15:07:48.415Z,37.17
2019-03-30T15:10:18.907Z,37.02
2019-03-30T15:12:50.865Z,36.95
2019-03-30T15:15:21.311Z,37.08
2019-03-30T15:17:51.634Z,37.28
2019-03-30T15:20:20.999Z,38.02
2019-03-30T15:22:51.040Z,37.79
2019-03-30T15:25:20.514Z,38.21
2019-03-30T15:27:53.966Z,37.46
2019-03-30T15:30:25.225Z,37.38
2019-03-30T15:32:56.195Z,38.13
2019-03-30T15:35:26.617Z,37.67
2019-03-30T15:37:57.440Z,38.05
2019-03-30T15:40:27.846Z,39.15
2019-03-30T15:42:57.431Z,38.09
2019-03-30T15:45:26.821Z,38.47
2019-03-30T15:47:57.862Z,38.42
2019-03-30T15:50:28.217Z,38.90
2019-03-30T15:52:58.578Z,38.64
2019-03-30T15:55:29.152Z,38.76
2019-03-30T15:57:59.536Z,38.79
2019-03-30T16:00:28.943Z,38.96
2019-03-30T16:02:59.439Z,39.01
2019-03-30T16:05:34.200Z,39.17
2019-03-30T16:08:05.867Z,39.56
2019-03-30T16:10:35.353Z,39.21
2019-03-30T16:13:08.430Z,39.36
2019-03-30T16:15:39.340Z,39.76
2019-03-30T16:18:10.443Z,39.86
2019-03-30T16:20:41.937Z,40.11
2019-03-30T16:23:12.576Z,40.24
2019-03-30T16:25:45.594Z,40.34
2019-03-30T16:28:17.618Z,40.44
2019-03-30T16:30:47.152Z,40.54
2019-03-30T16:33:16.557Z,40.23
2019-03-30T16:35:48.257Z,40.03
2019-03-30T16:38:18.641Z,40.10
2019-03-30T16:40:47.871Z,40.32
2019-03-30T16:43:19.571Z,40.68
2019-03-30T16:45:51.245Z,40.90
2019-03-30T16:48:21.808Z,40.67
2019-03-30T16:50:51.233Z,40.69
2019-03-30T16:53:20.627Z,40.99
2019-03-30T16:55:50.991Z,41.01
2019-03-30T16:58:21.459Z,41.33
2019-03-30T17:00:56.599Z,40.98
2019-03-30T17:03:27.735Z,41.22
2019-03-30T17:06:00.228Z,41.44
2019-03-30T17:08:30.911Z,41.55
2019-03-30T17:11:01.237Z,41.62
2019-03-30T17:13:31.765Z,41.54
2019-03-30T17:16:04.908Z,41.42
2019-03-30T17:18:34.481Z,41.89
2019-03-30T17:21:03.984Z,41.86
2019-03-30T17:23:34.650Z,41.86
2019-03-30T17:26:05.251Z,42.01
2019-03-30T17:28:37.040Z,42.15
2019-03-30T17:31:07.534Z,42.42
2019-03-30T17:33:36.933Z,42.56
2019-03-30T17:36:05.824Z,43.16
2019-03-30T17:38:36.430Z,42.97
2019-03-30T17:41:07.053Z,43.36
2019-03-30T17:43:37.366Z,43.44
2019-03-30T17:46:09.107Z,43.31
2019-03-30T17:48:39.522Z,43.21
2019-03-30T17:51:13.596Z,43.80
2019-03-30T17:53:42.950Z,43.48
2019-03-30T17:56:12.476Z,44.03
2019-03-30T17:58:49.605Z,44.19
2019-03-30T18:01:21.997Z,44.14
2019-03-30T18:03:52.507Z,44.10
2019-03-30T18:06:22.863Z,44.05
2019-03-30T18:08:54.907Z,44.26
2019-03-30T18:11:25.303Z,44.52
2019-03-30T18:13:55.668Z,44.91
2019-03-30T18:16:26.668Z,45.16
2019-03-30T18:18:57.134Z,45.74
2019-03-30T18:21:28.186Z,46.06
2019-03-30T18:23:58.546Z,51.62
2019-03-30T18:26:29.189Z,48.86
2019-03-30T18:29:01.472Z,51.93
2019-03-30T18:31:31.979Z,51.97
2019-03-30T18:34:01.381Z,51.36
2019-03-30T18:36:33.069Z,52.08
2019-03-30T18:39:09.675Z,52.45
2019-03-30T18:41:35.446Z,53.67
2019-03-30T18:44:05.971Z,53.40
2019-03-30T18:46:36.402Z,53.00
2019-03-30T18:49:10.145Z,52.77
2019-03-30T18:51:41.863Z,55.85
2019-03-30T18:54:11.438Z,55.22
2019-03-30T18:56:39.965Z,54.57
2019-03-30T18:59:09.304Z,54.21
2019-03-30T19:01:43.955Z,56.04
2019-03-30T19:04:14.813Z,53.91
2019-03-30T19:06:44.253Z,55.00
2019-03-30T19:09:14.644Z,57.50
2019-03-30T19:11:44.009Z,57.57
2019-03-30T19:14:13.367Z,55.71
2019-03-30T19:16:42.784Z,56.60
2019-03-30T19:19:13.049Z,57.18
2019-03-30T19:21:42.553Z,56.80
2019-03-30T19:24:12.900Z,57.46
2019-03-30T19:26:42.415Z,56.52
2019-03-30T19:29:13.156Z,58.85
2019-03-30T19:31:43.600Z,59.81
2019-03-30T19:34:16.088Z,60.54
2019-03-30T19:36:45.498Z,61.76
2019-03-30T19:39:15.959Z,60.73
2019-03-30T19:41:46.374Z,60.46
2019-03-30T19:44:16.752Z,62.48
2019-03-30T19:46:47.746Z,62.67
2019-03-30T19:49:18.218Z,62.19
2019-03-30T19:51:48.841Z,62.31
2019-03-30T19:54:17.662Z,62.47
2019-03-30T19:56:48.081Z,61.98
2019-03-30T19:59:18.451Z,61.63
2019-03-30T20:01:48.877Z,62.04
2019-03-30T20:04:18.394Z,62.32
2019-03-30T20:06:50.733Z,64.08
2019-03-30T20:09:21.148Z,65.77
2019-03-30T20:11:50.500Z,63.71
2019-03-30T20:14:20.817Z,63.39
2019-03-30T20:16:51.182Z,62.84
2019-03-30T20:19:22.704Z,64.19
2019-03-30T20:21:53.075Z,64.83
2019-03-30T20:24:23.931Z,65.72
2019-03-30T20:26:54.592Z,65.04
2019-03-30T20:29:25.924Z,64.94
2019-03-30T20:31:57.826Z,64.49
2019-03-30T20:34:27.390Z,64.24
2019-03-30T20:36:58.998Z,64.30
2019-03-30T20:39:27.780Z,63.67
2019-03-30T20:41:56.620Z,64.03
2019-03-30T20:44:29.010Z,64.30
2019-03-30T20:46:59.374Z,63.69
2019-03-30T20:49:29.650Z,63.79
2019-03-30T20:52:00.112Z,63.84
2019-03-30T20:54:30.530Z,64.24
2019-03-30T20:57:00.096Z,65.13
2019-03-30T20:59:39.986Z,65.10
2019-03-30T21:02:00.752Z,65.83
2019-03-30T21:04:30.219Z,66.83
2019-03-30T21:07:00.583Z,67.03
2019-03-30T21:09:30.977Z,66.92
2019-03-30T21:12:02.526Z,65.98
2019-03-30T21:14:31.001Z,66.25
2019-03-30T21:17:02.351Z,66.99
2019-03-30T21:19:32.914Z,66.94
2019-03-30T21:22:02.528Z,67.07
2019-03-30T21:24:32.894Z,67.06
2019-03-30T21:27:05.590Z,67.85
2019-03-30T21:29:36.110Z,68.69
2019-03-30T21:32:06.620Z,67.90
2019-03-30T21:34:35.983Z,67.99
2019-03-30T21:37:05.374Z,67.86
2019-03-30T21:39:35.701Z,68.18
2019-03-30T21:42:09.176Z,68.73
2019-03-30T21:44:40.560Z,68.51
2019-03-30T21:47:10.101Z,68.21
2019-03-30T21:49:41.026Z,68.17
2019-03-30T21:52:12.665Z,68.22
2019-03-30T21:54:42.160Z,68.09
2019-03-30T21:57:11.168Z,68.29
2019-03-30T21:59:41.592Z,68.55
2019-03-30T22:02:10.969Z,68.71
2019-03-30T22:04:41.367Z,68.93
2019-03-30T22:07:11.760Z,68.83
2019-03-30T22:09:44.158Z,68.86
2019-03-30T22:12:14.875Z,69.24
2019-03-30T22:14:44.280Z,69.76
2019-03-30T22:17:16.233Z,69.71
2019-03-30T22:19:46.614Z,69.23
2019-03-30T22:22:16.095Z,69.61
2019-03-30T22:24:48.470Z,69.71
2019-03-30T22:27:18.853Z,70.10
2019-03-30T22:29:49.651Z,69.78
2019-03-30T22:32:20.103Z,69.80
2019-03-30T22:34:49.527Z,69.91
2019-03-30T22:39:53.255Z,70.23
2019-03-30T22:42:23.729Z,70.63
2019-03-30T22:44:52.971Z,70.79
2019-03-30T22:47:25.355Z,70.69
2019-03-30T22:49:54.716Z,70.84
2019-03-30T22:52:25.125Z,70.77
2019-03-30T22:54:55.529Z,71.53
2019-03-30T22:57:25.930Z,71.45
2019-03-30T22:59:57.744Z,71.17
2019-03-30T23:02:27.287Z,71.50
2019-03-30T23:04:57.672Z,71.12
2019-03-30T23:07:27.055Z,71.29
2019-03-30T23:09:57.420Z,71.22
2019-03-30T23:12:27.858Z,71.23
2019-03-30T23:14:57.329Z,71.43
2019-03-30T23:17:28.646Z,71.45
2019-03-30T23:19:58.069Z,71.59
2019-03-30T23:22:30.406Z,71.52
2019-03-30T23:25:00.719Z,71.54
2019-03-30T23:27:30.113Z,71.94
2019-03-30T23:30:00.536Z,72.03
2019-03-30T23:32:29.845Z,72.16
2019-03-30T23:34:59.352Z,72.02
2019-03-30T23:37:29.709Z,71.93
2019-03-30T23:40:00.117Z,72.15
2019-03-30T23:42:32.022Z,72.53
2019-03-30T23:45:02.394Z,72.88
2019-03-30T23:47:32.808Z,73.02
2019-03-30T23:50:02.196Z,72.84
2019-03-30T23:52:32.558Z,72.93
2019-03-30T23:55:02.031Z,72.71
2019-03-30T23:57:31.424Z,72.42
